Terminal Aerodrome Forecast
Issued by NWS

Home | Current Version | Previous Version | Text Only | Print | Product List | Glossary Off
Versions: 1 2 3 4 5 6 7 8 9 10 11 12 13 14 15 16 17 18 19 20 21 22 23 24 25 26 27 28 29
000 FTUS41 KBOX 300541 TAFBAF TAF KBAF 300541Z 3006/3106 17006KT 2SM -SN OVC015 FM301400 00000KT 2SM -SN OVC025 FM301700 33005KT P6SM OVC020 FM302000 32010G19KT P6SM OVC020 FM302100 32011G24KT P6SM OVC045=

USA.gov is the U.S. government's official web portal to all federal, state and local government web resources and services.